Damascus, Alabama
Current Conditions -  °F | °C
As of 11:17 AM on Sunday 23 Nov 2014 (Local Time) from KGZH Reporting Station
Thunderstorm Thunderstorm  
Wind Chill: 75°   Ceiling: 1900
Heat Index: 75°   Visibility: 1.5mi
Dew Point: 71°   Wind: 16mph
Humidity: 87%   Direction: 200°SSW
Pressure: 29.7"   Gusts: 24mph
Location:  31.165°N, 87.0243°W
Report Text: KGZH 231717Z AUTO 20014G21KT 1 1/2SM VCTS +RA BR SCT013 BKN019 OVC031 24/22 A2970 RMK AO2 LTG DSNT SE P0011 T02390217
Loading
Personal Weather Stations






























Interactive Weather Map New forecast layout! Learn more

10-Day Weather Forecast

Advertisements
Track Severe Weather on mobile